sensor_id;sensor_type;location;lat;lon;timestamp;P1;durP1;ratioP1;P2;durP2;ratioP2
5363;SDS011;2705;41.410;2.160;2023-01-08T00:01:45;15.33;;;9.77;;
5363;SDS011;2705;41.410;2.160;2023-01-08T00:04:18;18.63;;;9.30;;
5363;SDS011;2705;41.410;2.160;2023-01-08T00:06:48;15.67;;;10.47;;
5363;SDS011;2705;41.410;2.160;2023-01-08T00:09:17;16.67;;;10.17;;
5363;SDS011;2705;41.410;2.160;2023-01-08T00:11:46;18.07;;;10.67;;
5363;SDS011;2705;41.410;2.160;2023-01-08T00:14:16;16.00;;;9.50;;
5363;SDS011;2705;41.410;2.160;2023-01-08T00:16:45;15.37;;;9.47;;
5363;SDS011;2705;41.410;2.160;2023-01-08T00:19:15;16.97;;;10.33;;
5363;SDS011;2705;41.410;2.160;2023-01-08T00:21:46;13.23;;;9.00;;
5363;SDS011;2705;41.410;2.160;2023-01-08T00:24:15;13.47;;;8.60;;
5363;SDS011;2705;41.410;2.160;2023-01-08T00:26:44;15.37;;;9.37;;
5363;SDS011;2705;41.410;2.160;2023-01-08T00:29:13;17.77;;;9.40;;
5363;SDS011;2705;41.410;2.160;2023-01-08T00:31:43;15.50;;;9.70;;
5363;SDS011;2705;41.410;2.160;2023-01-08T00:34:12;15.73;;;9.13;;
5363;SDS011;2705;41.410;2.160;2023-01-08T00:36:41;15.20;;;9.10;;
5363;SDS011;2705;41.410;2.160;2023-01-08T00:39:12;12.97;;;8.90;;
5363;SDS011;2705;41.410;2.160;2023-01-08T00:41:41;12.57;;;8.90;;
5363;SDS011;2705;41.410;2.160;2023-01-08T00:44:11;23.00;;;9.63;;
5363;SDS011;2705;41.410;2.160;2023-01-08T00:46:41;13.57;;;8.00;;
5363;SDS011;2705;41.410;2.160;2023-01-08T00:49:10;14.50;;;7.60;;
5363;SDS011;2705;41.410;2.160;2023-01-08T00:51:39;14.43;;;8.07;;
5363;SDS011;2705;41.410;2.160;2023-01-08T00:54:09;12.87;;;7.80;;
5363;SDS011;2705;41.410;2.160;2023-01-08T00:56:40;10.33;;;6.37;;
5363;SDS011;2705;41.410;2.160;2023-01-08T00:59:09;8.33;;;5.57;;
5363;SDS011;2705;41.410;2.160;2023-01-08T01:01:38;8.17;;;4.10;;
5363;SDS011;2705;41.410;2.160;2023-01-08T01:04:08;7.10;;;5.10;;
5363;SDS011;2705;41.410;2.160;2023-01-08T01:06:37;5.80;;;4.00;;
5363;SDS011;2705;41.410;2.160;2023-01-08T01:09:07;10.00;;;4.60;;
5363;SDS011;2705;41.410;2.160;2023-01-08T01:11:36;7.20;;;3.90;;
5363;SDS011;2705;41.410;2.160;2023-01-08T01:14:08;5.80;;;3.70;;
5363;SDS011;2705;41.410;2.160;2023-01-08T01:16:38;5.00;;;3.97;;
5363;SDS011;2705;41.410;2.160;2023-01-08T01:19:07;7.20;;;3.97;;
5363;SDS011;2705;41.410;2.160;2023-01-08T01:21:37;7.70;;;4.70;;
5363;SDS011;2705;41.410;2.160;2023-01-08T01:24:06;7.20;;;4.30;;
5363;SDS011;2705;41.410;2.160;2023-01-08T01:26:36;4.90;;;4.00;;
5363;SDS011;2705;41.410;2.160;2023-01-08T01:29:06;11.00;;;4.27;;
5363;SDS011;2705;41.410;2.160;2023-01-08T01:31:36;5.87;;;4.07;;
5363;SDS011;2705;41.410;2.160;2023-01-08T01:34:05;5.47;;;4.33;;
5363;SDS011;2705;41.410;2.160;2023-01-08T01:36:35;9.20;;;4.10;;
5363;SDS011;2705;41.410;2.160;2023-01-08T01:39:04;4.60;;;3.50;;
5363;SDS011;2705;41.410;2.160;2023-01-08T01:41:36;4.60;;;3.77;;
5363;SDS011;2705;41.410;2.160;2023-01-08T01:46:54;5.13;;;3.70;;
5363;SDS011;2705;41.410;2.160;2023-01-08T01:49:24;5.93;;;3.70;;
5363;SDS011;2705;41.410;2.160;2023-01-08T01:51:54;7.23;;;3.80;;
5363;SDS011;2705;41.410;2.160;2023-01-08T01:54:23;4.20;;;3.10;;
5363;SDS011;2705;41.410;2.160;2023-01-08T01:56:53;5.53;;;3.40;;
5363;SDS011;2705;41.410;2.160;2023-01-08T01:59:22;4.47;;;3.63;;
5363;SDS011;2705;41.410;2.160;2023-01-08T02:01:52;4.70;;;3.70;;
5363;SDS011;2705;41.410;2.160;2023-01-08T02:04:23;5.90;;;4.50;;
5363;SDS011;2705;41.410;2.160;2023-01-08T02:06:54;5.00;;;3.90;;
5363;SDS011;2705;41.410;2.160;2023-01-08T02:09:28;6.20;;;4.37;;
5363;SDS011;2705;41.410;2.160;2023-01-08T02:12:03;6.30;;;4.63;;
5363;SDS011;2705;41.410;2.160;2023-01-08T02:14:48;5.40;;;4.07;;
5363;SDS011;2705;41.410;2.160;2023-01-08T02:17:23;7.97;;;4.60;;
5363;SDS011;2705;41.410;2.160;2023-01-08T02:19:56;8.30;;;5.57;;
5363;SDS011;2705;41.410;2.160;2023-01-08T02:22:29;8.20;;;5.23;;
5363;SDS011;2705;41.410;2.160;2023-01-08T02:25:05;6.27;;;4.50;;
5363;SDS011;2705;41.410;2.160;2023-01-08T02:27:38;6.73;;;5.00;;
5363;SDS011;2705;41.410;2.160;2023-01-08T02:30:10;8.87;;;6.00;;
5363;SDS011;2705;41.410;2.160;2023-01-08T02:32:40;8.50;;;5.80;;
5363;SDS011;2705;41.410;2.160;2023-01-08T02:35:10;8.90;;;5.90;;
5363;SDS011;2705;41.410;2.160;2023-01-08T02:37:40;7.63;;;5.30;;
5363;SDS011;2705;41.410;2.160;2023-01-08T02:40:13;8.90;;;5.60;;
5363;SDS011;2705;41.410;2.160;2023-01-08T02:42:46;8.43;;;6.00;;
5363;SDS011;2705;41.410;2.160;2023-01-08T02:48:08;8.37;;;5.70;;
5363;SDS011;2705;41.410;2.160;2023-01-08T02:50:38;7.93;;;4.70;;
5363;SDS011;2705;41.410;2.160;2023-01-08T02:53:09;8.50;;;6.20;;
5363;SDS011;2705;41.410;2.160;2023-01-08T02:55:40;8.30;;;6.00;;
5363;SDS011;2705;41.410;2.160;2023-01-08T02:58:11;7.80;;;6.10;;
5363;SDS011;2705;41.410;2.160;2023-01-08T03:00:41;9.83;;;5.83;;
5363;SDS011;2705;41.410;2.160;2023-01-08T03:03:13;10.00;;;5.80;;
5363;SDS011;2705;41.410;2.160;2023-01-08T03:05:46;8.63;;;5.83;;
5363;SDS011;2705;41.410;2.160;2023-01-08T03:08:16;8.83;;;5.50;;
5363;SDS011;2705;41.410;2.160;2023-01-08T03:10:47;7.50;;;5.40;;
5363;SDS011;2705;41.410;2.160;2023-01-08T03:13:20;7.53;;;4.80;;
5363;SDS011;2705;41.410;2.160;2023-01-08T03:15:52;8.03;;;5.30;;
5363;SDS011;2705;41.410;2.160;2023-01-08T03:18:24;6.97;;;5.23;;
5363;SDS011;2705;41.410;2.160;2023-01-08T03:20:55;4.83;;;4.10;;
5363;SDS011;2705;41.410;2.160;2023-01-08T03:23:24;6.30;;;4.27;;
5363;SDS011;2705;41.410;2.160;2023-01-08T03:25:54;10.07;;;5.60;;
5363;SDS011;2705;41.410;2.160;2023-01-08T03:28:27;6.50;;;4.43;;
5363;SDS011;2705;41.410;2.160;2023-01-08T03:30:58;7.13;;;4.90;;
5363;SDS011;2705;41.410;2.160;2023-01-08T03:33:29;7.37;;;4.47;;
5363;SDS011;2705;41.410;2.160;2023-01-08T03:35:58;7.17;;;4.67;;
5363;SDS011;2705;41.410;2.160;2023-01-08T03:38:29;6.10;;;4.97;;
5363;SDS011;2705;41.410;2.160;2023-01-08T03:41:02;5.87;;;5.10;;
5363;SDS011;2705;41.410;2.160;2023-01-08T03:43:34;6.87;;;4.50;;
5363;SDS011;2705;41.410;2.160;2023-01-08T03:46:06;8.73;;;5.00;;
5363;SDS011;2705;41.410;2.160;2023-01-08T03:48:36;9.53;;;5.00;;
5363;SDS011;2705;41.410;2.160;2023-01-08T03:51:07;8.97;;;4.80;;
5363;SDS011;2705;41.410;2.160;2023-01-08T03:53:36;7.77;;;5.13;;
5363;SDS011;2705;41.410;2.160;2023-01-08T03:56:05;6.03;;;5.33;;
5363;SDS011;2705;41.410;2.160;2023-01-08T03:58:36;6.93;;;4.50;;
5363;SDS011;2705;41.410;2.160;2023-01-08T04:01:06;6.00;;;4.83;;
5363;SDS011;2705;41.410;2.160;2023-01-08T04:03:35;6.00;;;4.73;;
5363;SDS011;2705;41.410;2.160;2023-01-08T04:06:04;6.90;;;5.00;;
5363;SDS011;2705;41.410;2.160;2023-01-08T04:08:34;10.57;;;4.13;;
5363;SDS011;2705;41.410;2.160;2023-01-08T04:11:03;8.50;;;4.50;;
5363;SDS011;2705;41.410;2.160;2023-01-08T04:13:32;7.37;;;4.40;;
5363;SDS011;2705;41.410;2.160;2023-01-08T04:16:04;4.90;;;4.20;;
5363;SDS011;2705;41.410;2.160;2023-01-08T04:18:34;6.00;;;4.70;;
5363;SDS011;2705;41.410;2.160;2023-01-08T04:21:03;7.77;;;5.13;;
5363;SDS011;2705;41.410;2.160;2023-01-08T04:23:32;6.60;;;5.30;;
5363;SDS011;2705;41.410;2.160;2023-01-08T04:26:03;10.17;;;5.40;;
5363;SDS011;2705;41.410;2.160;2023-01-08T04:28:32;7.87;;;5.10;;
5363;SDS011;2705;41.410;2.160;2023-01-08T04:31:05;6.97;;;4.93;;
5363;SDS011;2705;41.410;2.160;2023-01-08T04:33:35;5.70;;;4.53;;
5363;SDS011;2705;41.410;2.160;2023-01-08T04:36:04;7.33;;;5.60;;
5363;SDS011;2705;41.410;2.160;2023-01-08T04:38:33;8.10;;;4.93;;
5363;SDS011;2705;41.410;2.160;2023-01-08T04:41:03;6.67;;;4.87;;
5363;SDS011;2705;41.410;2.160;2023-01-08T04:43:32;7.37;;;5.37;;
5363;SDS011;2705;41.410;2.160;2023-01-08T04:46:02;8.23;;;4.93;;
5363;SDS011;2705;41.410;2.160;2023-01-08T04:48:35;8.77;;;5.60;;
5363;SDS011;2705;41.410;2.160;2023-01-08T04:51:04;6.63;;;4.87;;
5363;SDS011;2705;41.410;2.160;2023-01-08T04:53:35;8.43;;;5.17;;
5363;SDS011;2705;41.410;2.160;2023-01-08T04:56:07;7.20;;;4.77;;
5363;SDS011;2705;41.410;2.160;2023-01-08T04:58:37;7.20;;;5.40;;
5363;SDS011;2705;41.410;2.160;2023-01-08T05:01:10;7.50;;;5.00;;
5363;SDS011;2705;41.410;2.160;2023-01-08T05:03:41;12.33;;;5.47;;
5363;SDS011;2705;41.410;2.160;2023-01-08T05:06:10;8.10;;;5.27;;
5363;SDS011;2705;41.410;2.160;2023-01-08T05:08:39;8.50;;;5.20;;
5363;SDS011;2705;41.410;2.160;2023-01-08T05:11:09;6.20;;;4.60;;
5363;SDS011;2705;41.410;2.160;2023-01-08T05:13:38;9.07;;;5.37;;
5363;SDS011;2705;41.410;2.160;2023-01-08T05:16:07;8.67;;;5.70;;
5363;SDS011;2705;41.410;2.160;2023-01-08T05:18:37;7.27;;;5.30;;
5363;SDS011;2705;41.410;2.160;2023-01-08T05:21:07;5.83;;;5.10;;
5363;SDS011;2705;41.410;2.160;2023-01-08T05:23:37;6.93;;;4.80;;
5363;SDS011;2705;41.410;2.160;2023-01-08T05:26:06;8.00;;;4.80;;
5363;SDS011;2705;41.410;2.160;2023-01-08T05:28:36;6.60;;;4.90;;
5363;SDS011;2705;41.410;2.160;2023-01-08T05:31:05;13.53;;;5.57;;
5363;SDS011;2705;41.410;2.160;2023-01-08T05:33:35;11.47;;;5.37;;
5363;SDS011;2705;41.410;2.160;2023-01-08T05:36:05;7.60;;;5.70;;
5363;SDS011;2705;41.410;2.160;2023-01-08T05:38:35;5.90;;;4.63;;
5363;SDS011;2705;41.410;2.160;2023-01-08T05:41:05;8.87;;;5.90;;
5363;SDS011;2705;41.410;2.160;2023-01-08T05:43:35;8.80;;;6.20;;
5363;SDS011;2705;41.410;2.160;2023-01-08T05:46:04;12.00;;;6.87;;
5363;SDS011;2705;41.410;2.160;2023-01-08T05:48:34;13.00;;;6.20;;
5363;SDS011;2705;41.410;2.160;2023-01-08T05:51:03;9.03;;;5.90;;
5363;SDS011;2705;41.410;2.160;2023-01-08T05:53:33;10.87;;;6.90;;
5363;SDS011;2705;41.410;2.160;2023-01-08T05:56:06;8.93;;;6.03;;
5363;SDS011;2705;41.410;2.160;2023-01-08T05:58:35;13.10;;;6.60;;
5363;SDS011;2705;41.410;2.160;2023-01-08T06:01:05;9.30;;;5.93;;
5363;SDS011;2705;41.410;2.160;2023-01-08T06:03:35;14.93;;;6.20;;
5363;SDS011;2705;41.410;2.160;2023-01-08T06:06:05;8.53;;;5.43;;
5363;SDS011;2705;41.410;2.160;2023-01-08T06:08:36;9.50;;;5.63;;
5363;SDS011;2705;41.410;2.160;2023-01-08T06:11:07;7.70;;;5.53;;
5363;SDS011;2705;41.410;2.160;2023-01-08T06:13:39;8.13;;;5.47;;
5363;SDS011;2705;41.410;2.160;2023-01-08T06:16:09;9.40;;;6.43;;
5363;SDS011;2705;41.410;2.160;2023-01-08T06:18:38;9.67;;;5.90;;
5363;SDS011;2705;41.410;2.160;2023-01-08T06:21:08;12.23;;;5.97;;
5363;SDS011;2705;41.410;2.160;2023-01-08T06:23:39;10.23;;;6.03;;
5363;SDS011;2705;41.410;2.160;2023-01-08T06:26:09;11.83;;;6.00;;
5363;SDS011;2705;41.410;2.160;2023-01-08T06:28:39;12.67;;;6.03;;
5363;SDS011;2705;41.410;2.160;2023-01-08T06:31:08;7.30;;;5.70;;
5363;SDS011;2705;41.410;2.160;2023-01-08T06:33:38;13.67;;;6.50;;
5363;SDS011;2705;41.410;2.160;2023-01-08T06:36:07;12.80;;;5.80;;
5363;SDS011;2705;41.410;2.160;2023-01-08T06:38:36;11.87;;;6.43;;
5363;SDS011;2705;41.410;2.160;2023-01-08T06:41:06;8.13;;;5.33;;
5363;SDS011;2705;41.410;2.160;2023-01-08T06:43:37;12.73;;;5.80;;
5363;SDS011;2705;41.410;2.160;2023-01-08T06:46:07;14.10;;;5.90;;
5363;SDS011;2705;41.410;2.160;2023-01-08T06:48:37;9.83;;;5.50;;
5363;SDS011;2705;41.410;2.160;2023-01-08T06:51:06;10.40;;;5.47;;
5363;SDS011;2705;41.410;2.160;2023-01-08T06:53:35;8.37;;;5.63;;
5363;SDS011;2705;41.410;2.160;2023-01-08T06:56:05;13.43;;;6.43;;
5363;SDS011;2705;41.410;2.160;2023-01-08T06:58:38;9.40;;;5.70;;
5363;SDS011;2705;41.410;2.160;2023-01-08T07:01:12;9.60;;;5.90;;
5363;SDS011;2705;41.410;2.160;2023-01-08T07:03:42;8.33;;;5.90;;
5363;SDS011;2705;41.410;2.160;2023-01-08T07:06:12;9.77;;;5.83;;
5363;SDS011;2705;41.410;2.160;2023-01-08T07:08:42;9.47;;;5.90;;
5363;SDS011;2705;41.410;2.160;2023-01-08T07:11:12;8.00;;;5.00;;
5363;SDS011;2705;41.410;2.160;2023-01-08T07:13:43;8.90;;;4.93;;
5363;SDS011;2705;41.410;2.160;2023-01-08T07:16:12;8.80;;;5.60;;
5363;SDS011;2705;41.410;2.160;2023-01-08T07:18:42;8.43;;;5.40;;
5363;SDS011;2705;41.410;2.160;2023-01-08T07:21:11;17.70;;;5.90;;
5363;SDS011;2705;41.410;2.160;2023-01-08T07:23:40;8.17;;;5.53;;
5363;SDS011;2705;41.410;2.160;2023-01-08T07:26:12;13.33;;;6.20;;
5363;SDS011;2705;41.410;2.160;2023-01-08T07:28:43;13.07;;;5.60;;
5363;SDS011;2705;41.410;2.160;2023-01-08T07:31:12;7.27;;;5.47;;
5363;SDS011;2705;41.410;2.160;2023-01-08T07:33:42;7.70;;;5.80;;
5363;SDS011;2705;41.410;2.160;2023-01-08T07:36:11;10.20;;;5.93;;
5363;SDS011;2705;41.410;2.160;2023-01-08T07:38:41;9.77;;;5.80;;
5363;SDS011;2705;41.410;2.160;2023-01-08T07:41:11;46.73;;;23.57;;
5363;SDS011;2705;41.410;2.160;2023-01-08T07:43:40;27.50;;;16.80;;
5363;SDS011;2705;41.410;2.160;2023-01-08T07:46:11;29.50;;;18.07;;
5363;SDS011;2705;41.410;2.160;2023-01-08T07:48:40;10.40;;;7.60;;
5363;SDS011;2705;41.410;2.160;2023-01-08T07:51:09;7.80;;;6.40;;
5363;SDS011;2705;41.410;2.160;2023-01-08T07:53:38;13.40;;;7.20;;
5363;SDS011;2705;41.410;2.160;2023-01-08T07:56:08;10.77;;;6.43;;
5363;SDS011;2705;41.410;2.160;2023-01-08T07:58:38;10.30;;;6.57;;
5363;SDS011;2705;41.410;2.160;2023-01-08T08:01:08;8.40;;;5.80;;
5363;SDS011;2705;41.410;2.160;2023-01-08T08:03:39;11.90;;;6.70;;
5363;SDS011;2705;41.410;2.160;2023-01-08T08:06:09;10.50;;;5.60;;
5363;SDS011;2705;41.410;2.160;2023-01-08T08:08:38;11.67;;;6.50;;
5363;SDS011;2705;41.410;2.160;2023-01-08T08:11:08;10.13;;;6.40;;
5363;SDS011;2705;41.410;2.160;2023-01-08T08:13:37;9.83;;;6.10;;
5363;SDS011;2705;41.410;2.160;2023-01-08T08:16:10;12.30;;;6.67;;
5363;SDS011;2705;41.410;2.160;2023-01-08T08:18:41;15.50;;;6.30;;
5363;SDS011;2705;41.410;2.160;2023-01-08T08:21:11;11.43;;;6.60;;
5363;SDS011;2705;41.410;2.160;2023-01-08T08:23:40;11.00;;;6.27;;
5363;SDS011;2705;41.410;2.160;2023-01-08T08:26:09;11.03;;;6.53;;
5363;SDS011;2705;41.410;2.160;2023-01-08T08:28:38;12.13;;;7.43;;
5363;SDS011;2705;41.410;2.160;2023-01-08T08:31:08;11.17;;;5.93;;
5363;SDS011;2705;41.410;2.160;2023-01-08T08:33:37;22.73;;;12.37;;
5363;SDS011;2705;41.410;2.160;2023-01-08T08:36:09;11.33;;;6.20;;
5363;SDS011;2705;41.410;2.160;2023-01-08T08:38:38;8.27;;;5.50;;
5363;SDS011;2705;41.410;2.160;2023-01-08T08:41:07;7.13;;;5.60;;
5363;SDS011;2705;41.410;2.160;2023-01-08T08:43:37;13.60;;;5.97;;
5363;SDS011;2705;41.410;2.160;2023-01-08T08:46:06;15.97;;;5.70;;
5363;SDS011;2705;41.410;2.160;2023-01-08T08:48:35;9.87;;;5.40;;
5363;SDS011;2705;41.410;2.160;2023-01-08T08:51:05;8.00;;;5.20;;
5363;SDS011;2705;41.410;2.160;2023-01-08T08:53:35;6.03;;;5.40;;
5363;SDS011;2705;41.410;2.160;2023-01-08T08:56:05;6.47;;;4.77;;
5363;SDS011;2705;41.410;2.160;2023-01-08T08:58:34;6.53;;;4.83;;
5363;SDS011;2705;41.410;2.160;2023-01-08T09:01:04;22.33;;;14.70;;
5363;SDS011;2705;41.410;2.160;2023-01-08T09:03:34;10.40;;;6.50;;
5363;SDS011;2705;41.410;2.160;2023-01-08T09:06:11;11.20;;;6.57;;
5363;SDS011;2705;41.410;2.160;2023-01-08T09:08:42;10.00;;;5.73;;
5363;SDS011;2705;41.410;2.160;2023-01-08T09:11:11;9.70;;;5.27;;
5363;SDS011;2705;41.410;2.160;2023-01-08T09:13:41;5.70;;;4.90;;
5363;SDS011;2705;41.410;2.160;2023-01-08T09:16:10;11.97;;;5.80;;
5363;SDS011;2705;41.410;2.160;2023-01-08T09:18:40;6.83;;;4.70;;
5363;SDS011;2705;41.410;2.160;2023-01-08T09:21:10;6.90;;;5.27;;
5363;SDS011;2705;41.410;2.160;2023-01-08T09:23:39;9.87;;;5.70;;
5363;SDS011;2705;41.410;2.160;2023-01-08T09:26:10;11.57;;;5.90;;
5363;SDS011;2705;41.410;2.160;2023-01-08T09:28:40;9.93;;;5.03;;
5363;SDS011;2705;41.410;2.160;2023-01-08T09:31:09;17.17;;;6.73;;
5363;SDS011;2705;41.410;2.160;2023-01-08T09:33:39;9.17;;;5.27;;
5363;SDS011;2705;41.410;2.160;2023-01-08T09:36:08;6.87;;;5.23;;
5363;SDS011;2705;41.410;2.160;2023-01-08T09:38:38;9.60;;;5.80;;
5363;SDS011;2705;41.410;2.160;2023-01-08T09:41:12;9.23;;;7.07;;
5363;SDS011;2705;41.410;2.160;2023-01-08T09:43:43;9.97;;;6.27;;
5363;SDS011;2705;41.410;2.160;2023-01-08T09:46:13;9.47;;;5.60;;
5363;SDS011;2705;41.410;2.160;2023-01-08T09:48:44;11.33;;;6.77;;
5363;SDS011;2705;41.410;2.160;2023-01-08T09:51:16;9.47;;;6.30;;
5363;SDS011;2705;41.410;2.160;2023-01-08T09:53:47;11.53;;;7.10;;
5363;SDS011;2705;41.410;2.160;2023-01-08T09:56:19;10.30;;;6.90;;
5363;SDS011;2705;41.410;2.160;2023-01-08T09:58:49;12.00;;;7.90;;
5363;SDS011;2705;41.410;2.160;2023-01-08T10:01:19;21.20;;;8.43;;
5363;SDS011;2705;41.410;2.160;2023-01-08T10:03:50;18.20;;;8.77;;
5363;SDS011;2705;41.410;2.160;2023-01-08T10:06:22;14.07;;;8.77;;
5363;SDS011;2705;41.410;2.160;2023-01-08T10:08:51;11.67;;;7.23;;
5363;SDS011;2705;41.410;2.160;2023-01-08T10:11:22;13.10;;;7.77;;
5363;SDS011;2705;41.410;2.160;2023-01-08T10:13:52;11.20;;;7.27;;
5363;SDS011;2705;41.410;2.160;2023-01-08T10:16:24;13.50;;;8.83;;
5363;SDS011;2705;41.410;2.160;2023-01-08T10:18:56;13.90;;;9.40;;
5363;SDS011;2705;41.410;2.160;2023-01-08T10:21:27;18.70;;;8.80;;
5363;SDS011;2705;41.410;2.160;2023-01-08T10:23:57;14.10;;;9.70;;
5363;SDS011;2705;41.410;2.160;2023-01-08T10:26:28;21.40;;;11.40;;
5363;SDS011;2705;41.410;2.160;2023-01-08T10:29:05;16.13;;;11.17;;
5363;SDS011;2705;41.410;2.160;2023-01-08T10:31:37;15.30;;;9.17;;
5363;SDS011;2705;41.410;2.160;2023-01-08T10:34:07;18.03;;;9.90;;
5363;SDS011;2705;41.410;2.160;2023-01-08T10:36:38;15.03;;;9.20;;
5363;SDS011;2705;41.410;2.160;2023-01-08T10:39:12;21.40;;;9.27;;
5363;SDS011;2705;41.410;2.160;2023-01-08T10:41:48;23.70;;;12.00;;
5363;SDS011;2705;41.410;2.160;2023-01-08T10:44:19;16.00;;;9.33;;
5363;SDS011;2705;41.410;2.160;2023-01-08T10:46:52;13.30;;;9.20;;
5363;SDS011;2705;41.410;2.160;2023-01-08T10:49:25;14.30;;;9.23;;
5363;SDS011;2705;41.410;2.160;2023-01-08T10:51:55;14.00;;;10.33;;
5363;SDS011;2705;41.410;2.160;2023-01-08T10:54:26;16.60;;;10.67;;
5363;SDS011;2705;41.410;2.160;2023-01-08T10:56:58;16.13;;;10.07;;
5363;SDS011;2705;41.410;2.160;2023-01-08T10:59:28;25.40;;;14.30;;
5363;SDS011;2705;41.410;2.160;2023-01-08T11:01:58;16.57;;;9.17;;
5363;SDS011;2705;41.410;2.160;2023-01-08T11:04:29;15.30;;;9.13;;
5363;SDS011;2705;41.410;2.160;2023-01-08T11:07:00;18.83;;;9.97;;
5363;SDS011;2705;41.410;2.160;2023-01-08T11:09:30;19.97;;;9.37;;
5363;SDS011;2705;41.410;2.160;2023-01-08T11:12:02;16.77;;;9.33;;
5363;SDS011;2705;41.410;2.160;2023-01-08T11:14:31;15.03;;;9.90;;
5363;SDS011;2705;41.410;2.160;2023-01-08T11:17:07;12.53;;;9.03;;
5363;SDS011;2705;41.410;2.160;2023-01-08T11:19:37;15.17;;;9.27;;
5363;SDS011;2705;41.410;2.160;2023-01-08T11:22:16;16.70;;;9.93;;
5363;SDS011;2705;41.410;2.160;2023-01-08T11:24:45;17.40;;;9.57;;
5363;SDS011;2705;41.410;2.160;2023-01-08T11:27:17;18.70;;;9.93;;
5363;SDS011;2705;41.410;2.160;2023-01-08T11:29:49;22.33;;;9.10;;
5363;SDS011;2705;41.410;2.160;2023-01-08T11:32:27;10.60;;;8.23;;
5363;SDS011;2705;41.410;2.160;2023-01-08T11:34:58;17.73;;;9.53;;
5363;SDS011;2705;41.410;2.160;2023-01-08T11:37:29;17.83;;;9.60;;
5363;SDS011;2705;41.410;2.160;2023-01-08T11:40:01;13.50;;;8.83;;
5363;SDS011;2705;41.410;2.160;2023-01-08T11:42:41;12.27;;;9.40;;
5363;SDS011;2705;41.410;2.160;2023-01-08T11:45:16;13.40;;;8.37;;
5363;SDS011;2705;41.410;2.160;2023-01-08T11:48:04;15.13;;;9.53;;
5363;SDS011;2705;41.410;2.160;2023-01-08T11:50:36;14.27;;;8.90;;
5363;SDS011;2705;41.410;2.160;2023-01-08T11:53:12;23.33;;;10.90;;
5363;SDS011;2705;41.410;2.160;2023-01-08T11:55:48;15.00;;;9.27;;
5363;SDS011;2705;41.410;2.160;2023-01-08T11:58:23;17.73;;;9.20;;
5363;SDS011;2705;41.410;2.160;2023-01-08T12:01:12;15.47;;;8.50;;
5363;SDS011;2705;41.410;2.160;2023-01-08T12:03:43;15.50;;;10.60;;
5363;SDS011;2705;41.410;2.160;2023-01-08T12:06:18;20.67;;;10.03;;
5363;SDS011;2705;41.410;2.160;2023-01-08T12:08:53;16.60;;;11.30;;
5363;SDS011;2705;41.410;2.160;2023-01-08T12:11:24;19.63;;;12.03;;
5363;SDS011;2705;41.410;2.160;2023-01-08T12:13:58;19.07;;;11.50;;
5363;SDS011;2705;41.410;2.160;2023-01-08T12:16:35;19.40;;;12.27;;
5363;SDS011;2705;41.410;2.160;2023-01-08T12:19:14;18.80;;;11.50;;
5363;SDS011;2705;41.410;2.160;2023-01-08T12:21:48;19.10;;;11.90;;
5363;SDS011;2705;41.410;2.160;2023-01-08T12:24:34;20.10;;;12.70;;
5363;SDS011;2705;41.410;2.160;2023-01-08T12:27:08;18.80;;;12.00;;
5363;SDS011;2705;41.410;2.160;2023-01-08T12:29:56;19.10;;;12.73;;
5363;SDS011;2705;41.410;2.160;2023-01-08T12:32:29;17.80;;;10.87;;
5363;SDS011;2705;41.410;2.160;2023-01-08T12:35:04;21.80;;;11.43;;
5363;SDS011;2705;41.410;2.160;2023-01-08T12:37:38;23.73;;;13.60;;
5363;SDS011;2705;41.410;2.160;2023-01-08T12:40:12;26.50;;;14.87;;
5363;SDS011;2705;41.410;2.160;2023-01-08T12:42:43;29.07;;;14.00;;
5363;SDS011;2705;41.410;2.160;2023-01-08T12:45:28;25.70;;;14.43;;
5363;SDS011;2705;41.410;2.160;2023-01-08T12:47:59;22.10;;;14.73;;
5363;SDS011;2705;41.410;2.160;2023-01-08T12:53:23;23.83;;;14.50;;
5363;SDS011;2705;41.410;2.160;2023-01-08T12:55:57;29.53;;;17.23;;
5363;SDS011;2705;41.410;2.160;2023-01-08T12:58:33;29.50;;;17.83;;
5363;SDS011;2705;41.410;2.160;2023-01-08T13:01:15;31.67;;;18.10;;
5363;SDS011;2705;41.410;2.160;2023-01-08T13:03:44;27.63;;;17.70;;
5363;SDS011;2705;41.410;2.160;2023-01-08T13:06:15;28.00;;;15.27;;
5363;SDS011;2705;41.410;2.160;2023-01-08T13:08:46;26.30;;;15.73;;
5363;SDS011;2705;41.410;2.160;2023-01-08T13:11:23;29.80;;;17.57;;
5363;SDS011;2705;41.410;2.160;2023-01-08T13:14:02;26.43;;;16.00;;
5363;SDS011;2705;41.410;2.160;2023-01-08T13:16:35;21.30;;;13.63;;
5363;SDS011;2705;41.410;2.160;2023-01-08T13:19:06;21.80;;;14.53;;
5363;SDS011;2705;41.410;2.160;2023-01-08T13:21:36;21.83;;;13.97;;
5363;SDS011;2705;41.410;2.160;2023-01-08T13:24:18;26.47;;;15.30;;
5363;SDS011;2705;41.410;2.160;2023-01-08T13:26:49;22.30;;;13.77;;
5363;SDS011;2705;41.410;2.160;2023-01-08T13:29:28;23.53;;;15.23;;
5363;SDS011;2705;41.410;2.160;2023-01-08T13:35:00;32.00;;;15.10;;
5363;SDS011;2705;41.410;2.160;2023-01-08T13:37:30;27.47;;;15.70;;
5363;SDS011;2705;41.410;2.160;2023-01-08T13:39:59;24.17;;;14.57;;
5363;SDS011;2705;41.410;2.160;2023-01-08T13:42:31;26.27;;;15.87;;
5363;SDS011;2705;41.410;2.160;2023-01-08T13:45:02;29.33;;;16.10;;
5363;SDS011;2705;41.410;2.160;2023-01-08T13:47:32;28.70;;;16.60;;
5363;SDS011;2705;41.410;2.160;2023-01-08T13:50:04;23.20;;;14.33;;
5363;SDS011;2705;41.410;2.160;2023-01-08T13:52:42;22.43;;;13.27;;
5363;SDS011;2705;41.410;2.160;2023-01-08T13:55:14;21.10;;;13.10;;
5363;SDS011;2705;41.410;2.160;2023-01-08T13:57:45;24.50;;;11.70;;
5363;SDS011;2705;41.410;2.160;2023-01-08T14:00:20;19.47;;;10.57;;
5363;SDS011;2705;41.410;2.160;2023-01-08T14:02:50;17.23;;;10.83;;
5363;SDS011;2705;41.410;2.160;2023-01-08T14:05:24;18.63;;;11.37;;
5363;SDS011;2705;41.410;2.160;2023-01-08T14:07:54;16.90;;;10.40;;
5363;SDS011;2705;41.410;2.160;2023-01-08T14:10:23;19.50;;;9.27;;
5363;SDS011;2705;41.410;2.160;2023-01-08T14:12:53;14.27;;;8.20;;
5363;SDS011;2705;41.410;2.160;2023-01-08T14:15:24;13.40;;;8.43;;
5363;SDS011;2705;41.410;2.160;2023-01-08T14:17:54;16.00;;;8.80;;
5363;SDS011;2705;41.410;2.160;2023-01-08T14:20:29;13.37;;;7.80;;
5363;SDS011;2705;41.410;2.160;2023-01-08T14:22:59;11.97;;;7.60;;
5363;SDS011;2705;41.410;2.160;2023-01-08T14:25:28;15.13;;;8.77;;
5363;SDS011;2705;41.410;2.160;2023-01-08T14:27:59;16.03;;;8.40;;
5363;SDS011;2705;41.410;2.160;2023-01-08T14:30:29;13.50;;;7.00;;
5363;SDS011;2705;41.410;2.160;2023-01-08T14:32:58;10.67;;;6.37;;
5363;SDS011;2705;41.410;2.160;2023-01-08T14:35:31;12.07;;;6.80;;
5363;SDS011;2705;41.410;2.160;2023-01-08T14:38:01;10.37;;;6.40;;
5363;SDS011;2705;41.410;2.160;2023-01-08T14:40:33;9.10;;;5.80;;
5363;SDS011;2705;41.410;2.160;2023-01-08T14:43:06;9.33;;;6.47;;
5363;SDS011;2705;41.410;2.160;2023-01-08T14:45:36;10.30;;;6.87;;
5363;SDS011;2705;41.410;2.160;2023-01-08T14:48:10;11.30;;;6.47;;
5363;SDS011;2705;41.410;2.160;2023-01-08T14:50:43;10.63;;;7.07;;
5363;SDS011;2705;41.410;2.160;2023-01-08T14:53:16;10.90;;;7.20;;
5363;SDS011;2705;41.410;2.160;2023-01-08T14:55:47;11.40;;;5.77;;
5363;SDS011;2705;41.410;2.160;2023-01-08T14:58:19;7.80;;;5.60;;
5363;SDS011;2705;41.410;2.160;2023-01-08T15:00:55;15.57;;;7.60;;
5363;SDS011;2705;41.410;2.160;2023-01-08T15:03:29;11.77;;;6.37;;
5363;SDS011;2705;41.410;2.160;2023-01-08T15:06:00;8.70;;;6.00;;
5363;SDS011;2705;41.410;2.160;2023-01-08T15:08:34;11.63;;;7.00;;
5363;SDS011;2705;41.410;2.160;2023-01-08T15:11:04;10.30;;;6.30;;
5363;SDS011;2705;41.410;2.160;2023-01-08T15:13:35;11.63;;;7.27;;
5363;SDS011;2705;41.410;2.160;2023-01-08T15:16:05;11.37;;;6.43;;
5363;SDS011;2705;41.410;2.160;2023-01-08T15:18:39;11.50;;;6.70;;
5363;SDS011;2705;41.410;2.160;2023-01-08T15:21:15;18.23;;;11.27;;
5363;SDS011;2705;41.410;2.160;2023-01-08T15:23:46;9.47;;;6.87;;
5363;SDS011;2705;41.410;2.160;2023-01-08T15:26:16;8.03;;;6.10;;
5363;SDS011;2705;41.410;2.160;2023-01-08T15:28:47;8.37;;;6.20;;
5363;SDS011;2705;41.410;2.160;2023-01-08T15:31:25;8.00;;;5.20;;
5363;SDS011;2705;41.410;2.160;2023-01-08T15:33:54;5.23;;;3.80;;
5363;SDS011;2705;41.410;2.160;2023-01-08T15:36:25;4.73;;;3.60;;
5363;SDS011;2705;41.410;2.160;2023-01-08T15:38:55;5.40;;;3.53;;
5363;SDS011;2705;41.410;2.160;2023-01-08T15:41:24;7.20;;;4.17;;